createdAt,value
2018-11-03T00:01:01.663Z,98.18
2018-11-03T00:03:30.902Z,97.52
2018-11-03T00:06:00.014Z,98.00
2018-11-03T00:08:29.113Z,97.86
2018-11-03T00:10:58.302Z,98.32
2018-11-03T00:13:27.510Z,98.10
2018-11-03T00:15:56.892Z,97.87
2018-11-03T00:18:26.195Z,98.47
2018-11-03T00:20:55.509Z,98.61
2018-11-03T00:23:24.686Z,98.24
2018-11-03T00:25:53.779Z,98.50
2018-11-03T00:28:22.855Z,97.95
2018-11-03T00:30:52.086Z,98.41
2018-11-03T00:33:21.314Z,98.23
2018-11-03T00:35:50.623Z,98.68
2018-11-03T00:38:19.902Z,98.48
2018-11-03T00:40:49.286Z,98.82
2018-11-03T00:43:18.500Z,99.35
2018-11-03T00:45:48.631Z,99.57
2018-11-03T00:48:17.864Z,99.44
2018-11-03T00:50:46.931Z,100.00
2018-11-03T00:53:16.202Z,100.00
2018-11-03T00:55:45.258Z,100.00
2018-11-03T00:58:14.507Z,100.00
2018-11-03T01:00:43.707Z,100.00
2018-11-03T01:03:12.938Z,100.00
2018-11-03T01:05:42.173Z,100.00
2018-11-03T01:08:11.352Z,100.00
2018-11-03T01:10:40.934Z,100.00
2018-11-03T01:13:10.039Z,100.00
2018-11-03T01:15:39.433Z,100.00
2018-11-03T01:18:08.524Z,100.00
2018-11-03T01:20:37.731Z,100.00
2018-11-03T01:23:07.109Z,100.00
2018-11-03T01:25:36.339Z,100.00
2018-11-03T01:28:05.477Z,100.00
2018-11-03T01:30:34.738Z,100.00
2018-11-03T01:33:04.006Z,100.00
2018-11-03T01:35:33.230Z,100.00
2018-11-03T01:38:02.351Z,100.00
2018-11-03T01:40:31.558Z,100.00
2018-11-03T01:43:00.739Z,100.00
2018-11-03T01:45:29.854Z,100.00
2018-11-03T01:47:59.042Z,100.00
2018-11-03T01:50:28.170Z,100.00
2018-11-03T01:52:57.290Z,100.00
2018-11-03T01:55:26.435Z,100.00
2018-11-03T01:57:55.719Z,100.00
2018-11-03T02:00:24.821Z,100.00
2018-11-03T02:02:54.266Z,100.00
2018-11-03T02:05:23.332Z,100.00
2018-11-03T02:07:52.562Z,100.00
2018-11-03T02:10:21.898Z,100.00
2018-11-03T02:12:51.687Z,100.00
2018-11-03T02:15:20.966Z,100.00
2018-11-03T02:17:50.036Z,100.00
2018-11-03T02:20:19.240Z,100.00
2018-11-03T02:22:48.327Z,100.00
2018-11-03T02:25:17.542Z,100.00
2018-11-03T02:27:46.957Z,100.00
2018-11-03T02:30:16.126Z,100.00
2018-11-03T02:32:45.298Z,100.00
2018-11-03T02:35:14.516Z,100.00
2018-11-03T02:37:43.711Z,100.00
2018-11-03T02:40:13.666Z,100.00
2018-11-03T02:42:43.238Z,100.00
2018-11-03T02:45:12.675Z,100.00
2018-11-03T02:47:42.411Z,100.00
2018-11-03T02:50:13.476Z,100.00
2018-11-03T02:52:43.112Z,100.00
2018-11-03T02:55:12.248Z,100.00
2018-11-03T02:57:41.355Z,100.00
2018-11-03T03:00:11.532Z,100.00
2018-11-03T03:02:40.883Z,100.00
2018-11-03T03:05:11.035Z,100.00
2018-11-03T03:07:40.411Z,100.00
2018-11-03T03:10:11.056Z,100.00
2018-11-03T03:12:40.355Z,100.00
2018-11-03T03:15:11.248Z,100.00
2018-11-03T03:17:40.951Z,100.00
2018-11-03T03:20:11.315Z,100.00
2018-11-03T03:22:40.417Z,100.00
2018-11-03T03:25:10.397Z,100.00
2018-11-03T03:27:39.467Z,100.00
2018-11-03T03:30:09.572Z,100.00
2018-11-03T03:32:38.720Z,100.00
2018-11-03T03:35:08.138Z,100.00
2018-11-03T03:37:37.210Z,100.00
2018-11-03T03:40:07.424Z,100.00
2018-11-03T03:42:36.579Z,100.00
2018-11-03T03:45:06.259Z,100.00
2018-11-03T03:47:35.303Z,100.00
2018-11-03T03:50:04.557Z,100.00
2018-11-03T03:52:33.802Z,100.00
2018-11-03T03:55:03.208Z,100.00
2018-11-03T03:57:32.542Z,100.00
2018-11-03T04:00:01.649Z,100.00
2018-11-03T04:02:30.835Z,100.00
2018-11-03T04:04:59.939Z,100.00
2018-11-03T04:07:29.103Z,100.00
2018-11-03T04:09:58.132Z,100.00
2018-11-03T04:12:27.136Z,100.00
2018-11-03T04:14:56.276Z,100.00
2018-11-03T04:17:25.616Z,100.00
2018-11-03T04:19:55.066Z,100.00
2018-11-03T04:22:24.818Z,100.00
2018-11-03T04:24:53.875Z,100.00
2018-11-03T04:27:22.933Z,100.00
2018-11-03T04:29:52.349Z,100.00
2018-11-03T04:32:21.971Z,100.00
2018-11-03T04:34:50.949Z,100.00
2018-11-03T04:37:20.131Z,100.00
2018-11-03T04:39:49.307Z,100.00
2018-11-03T04:42:18.521Z,100.00
2018-11-03T04:44:48.097Z,100.00
2018-11-03T04:47:17.247Z,100.00
2018-11-03T04:49:46.634Z,100.00
2018-11-03T04:52:15.743Z,100.00
2018-11-03T04:54:44.936Z,100.00
2018-11-03T04:57:14.150Z,100.00
2018-11-03T04:59:43.453Z,100.00
2018-11-03T05:02:12.838Z,100.00
2018-11-03T05:04:42.022Z,100.00
2018-11-03T05:07:11.317Z,100.00
2018-11-03T05:09:40.718Z,100.00
2018-11-03T05:12:09.889Z,100.00
2018-11-03T05:14:39.118Z,100.00
2018-11-03T05:17:08.588Z,100.00
2018-11-03T05:19:37.754Z,100.00
2018-11-03T05:22:07.283Z,100.00
2018-11-03T05:24:36.470Z,100.00
2018-11-03T05:27:05.753Z,100.00
2018-11-03T05:29:34.872Z,100.00
2018-11-03T05:32:04.146Z,100.00
2018-11-03T05:34:33.382Z,100.00
2018-11-03T05:37:02.650Z,100.00
2018-11-03T05:39:31.936Z,100.00
2018-11-03T05:42:01.043Z,100.00
2018-11-03T05:44:30.166Z,100.00
2018-11-03T05:46:59.328Z,97.58
2018-11-03T05:49:28.451Z,96.14
2018-11-03T05:51:57.635Z,94.69
2018-11-03T05:54:26.823Z,93.88
2018-11-03T05:56:56.056Z,92.73
2018-11-03T05:59:25.418Z,89.87
2018-11-03T06:01:54.655Z,88.96
2018-11-03T06:04:23.787Z,88.44
2018-11-03T06:06:52.843Z,85.88
2018-11-03T06:09:22.134Z,84.37
2018-11-03T06:11:51.562Z,81.92
2018-11-03T06:14:20.846Z,81.79
2018-11-03T06:16:49.914Z,80.23
2018-11-03T06:19:19.968Z,80.68
2018-11-03T06:21:49.329Z,80.36
2018-11-03T06:24:18.447Z,81.13
2018-11-03T06:26:47.701Z,81.48
2018-11-03T06:29:16.894Z,82.61
2018-11-03T06:31:45.878Z,81.47
2018-11-03T06:34:15.019Z,81.05
2018-11-03T06:36:44.282Z,79.52
2018-11-03T06:39:14.209Z,76.36
2018-11-03T06:41:43.569Z,74.21
2018-11-03T06:44:12.856Z,73.00
2018-11-03T06:46:42.255Z,71.66
2018-11-03T06:49:16.446Z,70.79
2018-11-03T06:51:46.434Z,68.87
2018-11-03T06:54:16.061Z,67.82
2018-11-03T06:56:46.048Z,66.49
2018-11-03T06:59:15.534Z,66.37
2018-11-03T07:01:44.655Z,67.01
2018-11-03T07:04:13.830Z,66.61
2018-11-03T07:06:43.044Z,66.06
2018-11-03T07:09:12.979Z,64.49
2018-11-03T07:11:42.612Z,65.33
2018-11-03T07:14:11.499Z,64.49
2018-11-03T07:16:40.650Z,64.36
2018-11-03T07:19:09.753Z,66.33
2018-11-03T07:21:39.111Z,67.62
2018-11-03T07:24:08.363Z,69.52
2018-11-03T07:26:37.634Z,68.47
2018-11-03T07:29:06.799Z,70.71
2018-11-03T07:31:35.863Z,70.72
2018-11-03T07:34:04.964Z,71.85
2018-11-03T07:36:34.151Z,70.91
2018-11-03T07:39:03.579Z,69.43
2018-11-03T07:41:32.636Z,69.12
2018-11-03T07:44:02.979Z,68.95
2018-11-03T07:46:32.074Z,68.53
2018-11-03T07:49:01.745Z,68.79
2018-11-03T07:51:30.650Z,67.95
2018-11-03T07:53:59.750Z,69.52
2018-11-03T07:56:29.316Z,68.36
2018-11-03T07:58:58.658Z,67.31
2018-11-03T08:01:27.963Z,67.59
2018-11-03T08:03:57.114Z,66.70
2018-11-03T08:06:26.706Z,69.21
2018-11-03T08:08:56.010Z,68.15
2018-11-03T08:11:25.103Z,69.66
2018-11-03T08:13:54.302Z,69.84
2018-11-03T08:16:23.458Z,69.65
2018-11-03T08:18:52.793Z,69.33
2018-11-03T08:21:22.031Z,68.63
2018-11-03T08:23:52.127Z,68.25
2018-11-03T08:26:21.189Z,66.98
2018-11-03T08:28:50.398Z,65.12
2018-11-03T08:31:19.733Z,64.32
2018-11-03T08:33:48.905Z,63.33
2018-11-03T08:36:18.099Z,63.53
2018-11-03T08:38:47.308Z,63.77
2018-11-03T08:41:16.859Z,62.53
2018-11-03T08:43:45.911Z,62.40
2018-11-03T08:46:15.181Z,62.00
2018-11-03T08:48:44.291Z,61.78
2018-11-03T08:51:13.359Z,62.04
2018-11-03T08:53:42.587Z,63.09
2018-11-03T08:56:11.585Z,62.66
2018-11-03T08:58:40.790Z,61.08
2018-11-03T09:01:09.893Z,61.05
2018-11-03T09:03:38.991Z,60.69
2018-11-03T09:06:08.323Z,59.60
2018-11-03T09:08:37.446Z,58.70
2018-11-03T09:11:06.602Z,62.32
2018-11-03T09:13:36.218Z,60.26
2018-11-03T09:16:05.397Z,62.15
2018-11-03T09:18:34.583Z,62.21
2018-11-03T09:21:04.042Z,59.93
2018-11-03T09:23:33.307Z,59.88
2018-11-03T09:26:02.583Z,59.06
2018-11-03T09:28:31.634Z,58.79
2018-11-03T09:31:01.463Z,58.24
2018-11-03T09:33:30.578Z,56.97
2018-11-03T09:35:59.851Z,57.14
2018-11-03T09:38:29.146Z,56.95
2018-11-03T09:40:58.494Z,56.24
2018-11-03T09:43:28.235Z,55.25
2018-11-03T09:45:57.336Z,55.30
2018-11-03T09:48:26.555Z,54.76
2018-11-03T09:50:55.845Z,53.95
2018-11-03T09:53:25.227Z,53.59
2018-11-03T09:55:54.510Z,53.40
2018-11-03T09:58:23.882Z,53.14
2018-11-03T10:00:53.120Z,52.88
2018-11-03T10:03:22.421Z,51.61
2018-11-03T10:05:51.862Z,51.74
2018-11-03T10:08:21.017Z,51.51
2018-11-03T10:10:50.236Z,51.40
2018-11-03T10:13:19.532Z,49.69
2018-11-03T10:15:48.674Z,50.97
2018-11-03T10:18:17.951Z,51.00
2018-11-03T10:20:47.710Z,49.79
2018-11-03T10:23:17.010Z,49.03
2018-11-03T10:25:46.362Z,47.54
2018-11-03T10:28:15.759Z,47.25
2018-11-03T10:30:45.030Z,47.29
2018-11-03T10:33:14.283Z,47.38
2018-11-03T10:35:43.683Z,45.22
2018-11-03T10:38:13.008Z,44.47
2018-11-03T10:40:42.169Z,43.73
2018-11-03T10:43:11.614Z,42.40
2018-11-03T10:45:40.942Z,41.43
2018-11-03T10:48:10.704Z,40.91
2018-11-03T10:50:40.038Z,40.87
2018-11-03T10:53:09.462Z,41.16
2018-11-03T10:55:38.672Z,41.62
2018-11-03T10:58:08.007Z,41.88
2018-11-03T11:00:42.095Z,41.33
2018-11-03T11:03:16.767Z,41.33
2018-11-03T11:05:51.195Z,40.47
2018-11-03T11:08:25.887Z,40.26
2018-11-03T11:11:00.139Z,39.61
2018-11-03T11:13:31.067Z,40.27
2018-11-03T11:16:00.270Z,39.62
2018-11-03T11:18:29.522Z,39.46
2018-11-03T11:20:59.062Z,38.88
2018-11-03T11:23:28.432Z,37.83
2018-11-03T11:25:57.470Z,36.99
2018-11-03T11:28:27.110Z,36.96
2018-11-03T11:30:56.235Z,37.16
2018-11-03T11:33:25.331Z,36.17
2018-11-03T11:35:54.787Z,35.49
2018-11-03T11:38:23.795Z,35.14
2018-11-03T11:40:52.941Z,33.81
2018-11-03T11:43:22.243Z,27.80
2018-11-03T11:45:51.391Z,28.53
2018-11-03T11:48:20.443Z,28.62
2018-11-03T11:50:50.402Z,26.71
2018-11-03T11:53:19.675Z,25.33
2018-11-03T11:55:48.962Z,26.01
2018-11-03T11:58:18.304Z,26.49
2018-11-03T12:00:47.568Z,25.89
2018-11-03T12:03:16.574Z,25.54
2018-11-03T12:05:45.975Z,24.58
2018-11-03T12:08:16.087Z,21.81
2018-11-03T12:10:45.291Z,21.13
2018-11-03T12:13:14.861Z,19.45
2018-11-03T12:15:44.063Z,20.08
2018-11-03T12:18:13.289Z,18.68
2018-11-03T12:20:42.646Z,15.99
2018-11-03T12:23:11.595Z,16.07
2018-11-03T12:25:40.926Z,14.84
2018-11-03T12:28:10.082Z,15.10
2018-11-03T12:30:39.234Z,15.43
2018-11-03T12:33:08.305Z,15.25
2018-11-03T12:35:37.746Z,15.17
2018-11-03T12:38:07.163Z,15.28
2018-11-03T12:40:36.267Z,15.94
2018-11-03T12:43:05.534Z,15.78
2018-11-03T12:45:34.714Z,16.17
2018-11-03T12:48:04.020Z,16.36
2018-11-03T12:50:33.289Z,17.04
2018-11-03T12:53:02.484Z,17.44
2018-11-03T12:55:32.007Z,17.87
2018-11-03T12:58:01.079Z,18.19
2018-11-03T13:00:30.189Z,18.37
2018-11-03T13:02:59.618Z,18.60
2018-11-03T13:05:28.901Z,19.52
2018-11-03T13:07:58.099Z,20.32
2018-11-03T13:10:27.402Z,20.52
2018-11-03T13:12:56.521Z,20.70
2018-11-03T13:15:25.710Z,20.68
2018-11-03T13:17:55.225Z,20.98
2018-11-03T13:20:24.277Z,21.69
2018-11-03T13:22:53.433Z,21.43
2018-11-03T13:25:22.840Z,21.28
2018-11-03T13:27:52.068Z,21.48
2018-11-03T13:30:21.295Z,21.43
2018-11-03T13:32:50.912Z,21.22
2018-11-03T13:35:20.192Z,21.21
2018-11-03T13:37:49.216Z,21.34
2018-11-03T13:40:18.688Z,21.75
2018-11-03T13:42:47.905Z,21.79
2018-11-03T13:45:17.043Z,21.61
2018-11-03T13:47:46.794Z,22.09
2018-11-03T13:50:17.034Z,21.85
2018-11-03T13:52:47.346Z,22.26
2018-11-03T13:55:16.892Z,21.94
2018-11-03T13:57:46.826Z,22.19
2018-11-03T14:00:17.883Z,22.10
2018-11-03T14:02:47.878Z,22.70
2018-11-03T14:05:17.118Z,22.64
2018-11-03T14:07:46.350Z,23.26
2018-11-03T14:10:16.539Z,23.42
2018-11-03T14:12:46.652Z,23.80
2018-11-03T14:15:17.137Z,23.90
2018-11-03T14:17:46.350Z,24.20
2018-11-03T14:20:16.321Z,24.87
2018-11-03T14:22:46.083Z,25.06
2018-11-03T14:25:17.529Z,25.93
2018-11-03T14:27:47.484Z,26.20
2018-11-03T14:30:16.846Z,26.26
2018-11-03T14:32:46.135Z,26.67
2018-11-03T14:35:15.888Z,27.16
2018-11-03T14:37:44.922Z,27.32
2018-11-03T14:40:15.750Z,27.39
2018-11-03T14:42:45.358Z,27.39
2018-11-03T14:45:15.452Z,27.53
2018-11-03T14:47:44.622Z,27.66
2018-11-03T14:50:13.787Z,28.21
2018-11-03T14:52:43.698Z,28.56
2018-11-03T14:55:13.564Z,29.12
2018-11-03T14:57:42.802Z,29.11
2018-11-03T15:00:14.199Z,29.76
2018-11-03T15:02:43.460Z,30.05
2018-11-03T15:05:13.233Z,30.52
2018-11-03T15:07:42.308Z,30.98
2018-11-03T15:10:12.502Z,32.15
2018-11-03T15:12:42.764Z,32.37
2018-11-03T15:15:13.407Z,33.03
2018-11-03T15:17:42.766Z,33.52
2018-11-03T15:20:12.377Z,34.20
2018-11-03T15:22:42.354Z,34.59
2018-11-03T15:25:11.425Z,34.94
2018-11-03T15:27:41.037Z,34.95
2018-11-03T15:30:11.703Z,35.70
2018-11-03T15:32:41.327Z,35.38
2018-11-03T15:35:11.260Z,36.12
2018-11-03T15:37:40.779Z,36.08
2018-11-03T15:40:11.784Z,36.32
2018-11-03T15:42:40.906Z,36.81
2018-11-03T15:45:13.593Z,37.20
2018-11-03T15:47:43.354Z,37.81
2018-11-03T15:50:13.310Z,37.65
2018-11-03T15:52:42.976Z,38.24
2018-11-03T15:55:12.076Z,38.50
2018-11-03T15:57:41.960Z,39.16
2018-11-03T16:00:14.227Z,39.59
2018-11-03T16:02:43.340Z,40.56
2018-11-03T16:05:12.460Z,40.28
2018-11-03T16:07:41.874Z,40.25
2018-11-03T16:10:11.484Z,40.56
2018-11-03T16:12:40.996Z,40.67
2018-11-03T16:15:11.468Z,40.68
2018-11-03T16:17:41.370Z,40.92
2018-11-03T16:20:11.700Z,40.85
2018-11-03T16:22:41.457Z,41.05
2018-11-03T16:25:10.699Z,41.89
2018-11-03T16:27:40.206Z,42.72
2018-11-03T16:30:11.603Z,44.08
2018-11-03T16:32:41.079Z,44.70
2018-11-03T16:35:09.963Z,46.18
2018-11-03T16:37:39.507Z,46.87
2018-11-03T16:40:10.151Z,47.79
2018-11-03T16:42:39.405Z,48.24
2018-11-03T16:45:10.411Z,49.09
2018-11-03T16:47:39.566Z,49.24
2018-11-03T16:50:09.991Z,49.51
2018-11-03T16:52:39.705Z,49.53
2018-11-03T16:55:09.395Z,49.61
2018-11-03T16:57:38.990Z,49.87
2018-11-03T17:00:10.301Z,49.42
2018-11-03T17:02:39.582Z,49.50
2018-11-03T17:05:10.006Z,49.35
2018-11-03T17:07:39.547Z,49.32
2018-11-03T17:10:11.041Z,49.10
2018-11-03T17:12:41.476Z,48.99
2018-11-03T17:15:11.222Z,48.49
2018-11-03T17:17:40.450Z,49.34
2018-11-03T17:20:10.398Z,49.76
2018-11-03T17:22:39.597Z,49.74
2018-11-03T17:25:10.249Z,50.35
2018-11-03T17:27:39.617Z,50.38
2018-11-03T17:30:10.453Z,50.69
2018-11-03T17:32:39.772Z,51.47
2018-11-03T17:35:09.251Z,52.36
2018-11-03T17:37:38.558Z,52.83
2018-11-03T17:40:08.843Z,54.17
2018-11-03T17:42:38.398Z,55.06
2018-11-03T17:45:08.535Z,55.91
2018-11-03T17:47:37.859Z,56.29
2018-11-03T17:50:08.403Z,56.76
2018-11-03T17:52:37.583Z,57.67
2018-11-03T17:55:07.352Z,58.09
2018-11-03T17:57:36.996Z,59.24
2018-11-03T18:00:09.179Z,59.77
2018-11-03T18:02:38.491Z,60.60
2018-11-03T18:05:07.533Z,61.20
2018-11-03T18:07:36.487Z,62.57
2018-11-03T18:10:06.199Z,64.61
2018-11-03T18:12:35.557Z,66.03
2018-11-03T18:15:04.958Z,67.93
2018-11-03T18:17:34.395Z,69.02
2018-11-03T18:20:03.791Z,70.59
2018-11-03T18:22:33.082Z,70.92
2018-11-03T18:25:02.763Z,71.51
2018-11-03T18:27:31.894Z,73.10
2018-11-03T18:30:01.053Z,73.83
2018-11-03T18:32:30.562Z,75.60
2018-11-03T18:34:59.893Z,76.20
2018-11-03T18:37:29.075Z,77.37
2018-11-03T18:39:58.552Z,77.52
2018-11-03T18:42:27.610Z,78.09
2018-11-03T18:44:56.899Z,78.96
2018-11-03T18:47:26.310Z,79.38
2018-11-03T18:49:55.421Z,79.84
2018-11-03T18:52:24.594Z,80.11
2018-11-03T18:54:54.158Z,80.18
2018-11-03T18:57:23.303Z,80.70
2018-11-03T18:59:53.115Z,81.61
2018-11-03T19:02:23.475Z,81.98
2018-11-03T19:04:52.718Z,81.98
2018-11-03T19:07:21.869Z,83.44
2018-11-03T19:09:51.333Z,83.62
2018-11-03T19:12:20.446Z,84.29
2018-11-03T19:14:49.619Z,84.80
2018-11-03T19:17:18.886Z,84.88
2018-11-03T19:19:47.998Z,84.80
2018-11-03T19:22:17.110Z,85.38
2018-11-03T19:24:46.547Z,85.75
2018-11-03T19:27:15.647Z,85.98
2018-11-03T19:29:44.881Z,86.23
2018-11-03T19:32:14.465Z,87.21
2018-11-03T19:34:43.746Z,86.68
2018-11-03T19:37:13.063Z,86.97
2018-11-03T19:39:42.307Z,87.27
2018-11-03T19:42:11.458Z,87.94
2018-11-03T19:44:40.829Z,88.09
2018-11-03T19:47:10.117Z,88.59
2018-11-03T19:49:39.428Z,88.72
2018-11-03T19:52:08.653Z,89.30
2018-11-03T19:54:38.175Z,89.87
2018-11-03T19:57:07.294Z,90.67
2018-11-03T19:59:36.455Z,90.73
2018-11-03T20:02:05.822Z,91.47
2018-11-03T20:04:35.369Z,91.33
2018-11-03T20:07:04.634Z,92.23
2018-11-03T20:09:33.870Z,92.06
2018-11-03T20:12:03.301Z,92.18
2018-11-03T20:14:32.551Z,92.57
2018-11-03T20:17:01.907Z,92.67
2018-11-03T20:19:30.975Z,92.44
2018-11-03T20:22:00.162Z,92.51
2018-11-03T20:24:29.742Z,92.70
2018-11-03T20:26:58.896Z,92.81
2018-11-03T20:29:28.092Z,92.87
2018-11-03T20:31:57.751Z,92.75
2018-11-03T20:34:26.817Z,92.61
2018-11-03T20:36:56.059Z,92.07
2018-11-03T20:39:25.463Z,92.27
2018-11-03T20:41:54.797Z,92.37
2018-11-03T20:44:23.879Z,91.88
2018-11-03T20:46:53.370Z,92.21
2018-11-03T20:49:22.554Z,92.28
2018-11-03T20:51:51.754Z,91.94
2018-11-03T20:54:21.304Z,91.46
2018-11-03T20:56:50.589Z,91.50
2018-11-03T20:59:19.609Z,91.72
2018-11-03T21:01:49.106Z,91.94
2018-11-03T21:04:18.442Z,91.86
2018-11-03T21:06:47.574Z,91.82
2018-11-03T21:09:17.224Z,91.46
2018-11-03T21:11:46.313Z,92.16
2018-11-03T21:14:15.602Z,92.09
2018-11-03T21:16:44.931Z,92.21
2018-11-03T21:19:14.206Z,91.64
2018-11-03T21:21:43.337Z,92.03
2018-11-03T21:24:12.721Z,91.63
2018-11-03T21:26:42.205Z,91.38
2018-11-03T21:29:11.291Z,91.54
2018-11-03T21:31:40.543Z,91.60
2018-11-03T21:34:09.676Z,91.66
2018-11-03T21:36:38.897Z,91.37
2018-11-03T21:39:09.928Z,91.00
2018-11-03T21:41:39.145Z,91.00
2018-11-03T21:44:08.427Z,90.82
2018-11-03T21:46:37.875Z,91.55
2018-11-03T21:49:07.244Z,91.39
2018-11-03T21:51:36.418Z,90.68
2018-11-03T21:54:06.027Z,91.23
2018-11-03T21:56:35.174Z,91.66
2018-11-03T21:59:04.460Z,91.76
2018-11-03T22:01:33.551Z,91.65
2018-11-03T22:04:02.755Z,92.21
2018-11-03T22:06:31.949Z,91.88
2018-11-03T22:09:01.730Z,91.85
2018-11-03T22:11:30.838Z,91.92
2018-11-03T22:13:59.874Z,91.95
2018-11-03T22:16:29.950Z,91.75
2018-11-03T22:18:59.229Z,92.68
2018-11-03T22:21:28.711Z,92.56
2018-11-03T22:23:58.208Z,93.43
2018-11-03T22:26:27.479Z,92.81
2018-11-03T22:28:56.938Z,92.69
2018-11-03T22:31:26.271Z,91.79
2018-11-03T22:33:55.381Z,91.88
2018-11-03T22:36:24.407Z,91.98
2018-11-03T22:38:53.758Z,91.42
2018-11-03T22:41:22.796Z,91.64
2018-11-03T22:43:51.967Z,92.36
2018-11-03T22:46:21.238Z,91.55
2018-11-03T22:48:50.497Z,91.68
2018-11-03T22:51:19.729Z,91.68
2018-11-03T22:53:49.218Z,91.17
2018-11-03T22:56:18.496Z,91.54
2018-11-03T22:58:47.407Z,90.75
2018-11-03T23:01:16.739Z,91.22
2018-11-03T23:03:45.976Z,90.66
2018-11-03T23:06:15.162Z,90.09
2018-11-03T23:08:44.275Z,90.19
2018-11-03T23:11:13.572Z,89.88
2018-11-03T23:13:42.915Z,90.12
2018-11-03T23:16:12.438Z,90.02
2018-11-03T23:18:41.528Z,89.88
2018-11-03T23:21:10.504Z,90.01
2018-11-03T23:23:39.796Z,90.03
2018-11-03T23:26:08.951Z,89.98
2018-11-03T23:28:38.072Z,89.72
2018-11-03T23:31:07.361Z,89.21
2018-11-03T23:33:36.460Z,89.58
2018-11-03T23:36:05.601Z,89.51
2018-11-03T23:38:34.715Z,89.67
2018-11-03T23:41:03.866Z,89.61
2018-11-03T23:43:32.953Z,90.56
2018-11-03T23:46:02.098Z,90.88
2018-11-03T23:48:31.249Z,90.90
2018-11-03T23:51:00.455Z,90.91
2018-11-03T23:53:29.811Z,91.34
2018-11-03T23:55:59.068Z,91.92
2018-11-03T23:58:28.165Z,92.55
